sensor_id;sensor_type;location;lat;lon;timestamp;P1;durP1;ratioP1;P2;durP2;ratioP2
25333;SDS011;24559;53.590;9.764;2023-07-22T00:01:22;8.07;;;6.10;;
25333;SDS011;24559;53.590;9.764;2023-07-22T00:03:48;8.77;;;7.35;;
25333;SDS011;24559;53.590;9.764;2023-07-22T00:06:14;8.65;;;6.50;;
25333;SDS011;24559;53.590;9.764;2023-07-22T00:08:40;9.27;;;6.90;;
25333;SDS011;24559;53.590;9.764;2023-07-22T00:11:06;8.05;;;6.72;;
25333;SDS011;24559;53.590;9.764;2023-07-22T00:13:33;11.05;;;7.07;;
25333;SDS011;24559;53.590;9.764;2023-07-22T00:15:59;8.52;;;7.13;;
25333;SDS011;24559;53.590;9.764;2023-07-22T00:18:27;11.13;;;8.43;;
25333;SDS011;24559;53.590;9.764;2023-07-22T00:20:53;10.43;;;8.27;;
25333;SDS011;24559;53.590;9.764;2023-07-22T00:23:19;10.75;;;7.63;;
25333;SDS011;24559;53.590;9.764;2023-07-22T00:25:46;12.48;;;7.85;;
25333;SDS011;24559;53.590;9.764;2023-07-22T00:28:12;13.27;;;7.05;;
25333;SDS011;24559;53.590;9.764;2023-07-22T00:30:39;12.18;;;8.63;;
25333;SDS011;24559;53.590;9.764;2023-07-22T00:33:05;8.43;;;6.57;;
25333;SDS011;24559;53.590;9.764;2023-07-22T00:35:31;8.80;;;7.18;;
25333;SDS011;24559;53.590;9.764;2023-07-22T00:37:58;10.50;;;7.90;;
25333;SDS011;24559;53.590;9.764;2023-07-22T00:40:24;11.25;;;8.95;;
25333;SDS011;24559;53.590;9.764;2023-07-22T00:42:51;10.65;;;7.45;;
25333;SDS011;24559;53.590;9.764;2023-07-22T00:45:17;9.77;;;8.15;;
25333;SDS011;24559;53.590;9.764;2023-07-22T00:47:43;12.32;;;8.52;;
25333;SDS011;24559;53.590;9.764;2023-07-22T00:50:10;15.32;;;9.18;;
25333;SDS011;24559;53.590;9.764;2023-07-22T00:52:37;13.05;;;8.18;;
25333;SDS011;24559;53.590;9.764;2023-07-22T00:55:07;11.13;;;7.20;;
25333;SDS011;24559;53.590;9.764;2023-07-22T00:57:36;12.00;;;8.00;;
25333;SDS011;24559;53.590;9.764;2023-07-22T01:00:03;10.52;;;7.63;;
25333;SDS011;24559;53.590;9.764;2023-07-22T01:02:30;14.38;;;7.70;;
25333;SDS011;24559;53.590;9.764;2023-07-22T01:04:57;10.77;;;7.15;;
25333;SDS011;24559;53.590;9.764;2023-07-22T01:07:23;9.40;;;7.35;;
25333;SDS011;24559;53.590;9.764;2023-07-22T01:09:50;9.85;;;7.82;;
25333;SDS011;24559;53.590;9.764;2023-07-22T01:12:21;10.68;;;8.45;;
25333;SDS011;24559;53.590;9.764;2023-07-22T01:14:47;9.27;;;7.32;;
25333;SDS011;24559;53.590;9.764;2023-07-22T01:17:13;10.82;;;7.45;;
25333;SDS011;24559;53.590;9.764;2023-07-22T01:19:40;12.02;;;8.15;;
25333;SDS011;24559;53.590;9.764;2023-07-22T01:22:06;16.60;;;9.90;;
25333;SDS011;24559;53.590;9.764;2023-07-22T01:24:33;9.40;;;7.53;;
25333;SDS011;24559;53.590;9.764;2023-07-22T01:26:59;17.90;;;9.88;;
25333;SDS011;24559;53.590;9.764;2023-07-22T01:29:26;13.57;;;8.48;;
25333;SDS011;24559;53.590;9.764;2023-07-22T01:31:53;12.98;;;8.27;;
25333;SDS011;24559;53.590;9.764;2023-07-22T01:34:19;13.68;;;8.40;;
25333;SDS011;24559;53.590;9.764;2023-07-22T01:36:46;9.35;;;7.70;;
25333;SDS011;24559;53.590;9.764;2023-07-22T01:39:13;13.38;;;8.63;;
25333;SDS011;24559;53.590;9.764;2023-07-22T01:41:39;10.02;;;8.30;;
25333;SDS011;24559;53.590;9.764;2023-07-22T01:44:05;10.80;;;8.10;;
25333;SDS011;24559;53.590;9.764;2023-07-22T01:46:33;16.20;;;9.60;;
25333;SDS011;24559;53.590;9.764;2023-07-22T01:49:00;8.20;;;7.38;;
25333;SDS011;24559;53.590;9.764;2023-07-22T01:51:27;11.75;;;7.22;;
25333;SDS011;24559;53.590;9.764;2023-07-22T01:53:53;12.85;;;7.13;;
25333;SDS011;24559;53.590;9.764;2023-07-22T01:56:22;8.32;;;6.95;;
25333;SDS011;24559;53.590;9.764;2023-07-22T01:58:48;11.18;;;7.78;;
25333;SDS011;24559;53.590;9.764;2023-07-22T02:01:14;11.07;;;7.82;;
25333;SDS011;24559;53.590;9.764;2023-07-22T02:03:41;11.43;;;8.23;;
25333;SDS011;24559;53.590;9.764;2023-07-22T02:06:08;9.70;;;6.53;;
25333;SDS011;24559;53.590;9.764;2023-07-22T02:08:34;10.30;;;7.25;;
25333;SDS011;24559;53.590;9.764;2023-07-22T02:11:02;11.00;;;7.60;;
25333;SDS011;24559;53.590;9.764;2023-07-22T02:13:32;11.35;;;7.03;;
25333;SDS011;24559;53.590;9.764;2023-07-22T02:15:58;10.52;;;7.18;;
25333;SDS011;24559;53.590;9.764;2023-07-22T02:18:24;11.32;;;6.80;;
25333;SDS011;24559;53.590;9.764;2023-07-22T02:20:51;11.98;;;7.18;;
25333;SDS011;24559;53.590;9.764;2023-07-22T02:23:18;11.30;;;7.45;;
25333;SDS011;24559;53.590;9.764;2023-07-22T02:25:44;10.45;;;6.70;;
25333;SDS011;24559;53.590;9.764;2023-07-22T02:28:14;13.55;;;7.72;;
25333;SDS011;24559;53.590;9.764;2023-07-22T02:30:41;10.13;;;6.72;;
25333;SDS011;24559;53.590;9.764;2023-07-22T02:33:07;9.02;;;6.32;;
25333;SDS011;24559;53.590;9.764;2023-07-22T02:35:34;11.45;;;6.20;;
25333;SDS011;24559;53.590;9.764;2023-07-22T02:38:00;12.07;;;7.25;;
25333;SDS011;24559;53.590;9.764;2023-07-22T02:40:27;15.10;;;7.82;;
25333;SDS011;24559;53.590;9.764;2023-07-22T02:42:53;12.38;;;7.90;;
25333;SDS011;24559;53.590;9.764;2023-07-22T02:45:19;18.70;;;8.85;;
25333;SDS011;24559;53.590;9.764;2023-07-22T02:47:46;11.98;;;8.02;;
25333;SDS011;24559;53.590;9.764;2023-07-22T02:50:12;12.98;;;7.85;;
25333;SDS011;24559;53.590;9.764;2023-07-22T02:52:38;11.13;;;7.15;;
25333;SDS011;24559;53.590;9.764;2023-07-22T02:57:31;12.85;;;7.68;;
25333;SDS011;24559;53.590;9.764;2023-07-22T02:59:57;14.00;;;7.38;;
25333;SDS011;24559;53.590;9.764;2023-07-22T03:02:23;12.60;;;8.65;;
25333;SDS011;24559;53.590;9.764;2023-07-22T03:04:49;12.95;;;8.45;;
25333;SDS011;24559;53.590;9.764;2023-07-22T03:07:18;10.70;;;6.75;;
25333;SDS011;24559;53.590;9.764;2023-07-22T03:09:45;12.15;;;7.93;;
25333;SDS011;24559;53.590;9.764;2023-07-22T03:12:11;14.52;;;7.43;;
25333;SDS011;24559;53.590;9.764;2023-07-22T03:14:38;13.02;;;8.23;;
25333;SDS011;24559;53.590;9.764;2023-07-22T03:17:04;12.98;;;7.93;;
25333;SDS011;24559;53.590;9.764;2023-07-22T03:19:30;11.82;;;7.60;;
25333;SDS011;24559;53.590;9.764;2023-07-22T03:21:56;19.73;;;7.18;;
25333;SDS011;24559;53.590;9.764;2023-07-22T03:24:23;14.80;;;8.00;;
25333;SDS011;24559;53.590;9.764;2023-07-22T03:26:50;15.30;;;9.30;;
25333;SDS011;24559;53.590;9.764;2023-07-22T03:29:16;18.08;;;8.85;;
25333;SDS011;24559;53.590;9.764;2023-07-22T03:31:42;9.23;;;7.20;;
25333;SDS011;24559;53.590;9.764;2023-07-22T03:34:08;15.50;;;8.43;;
25333;SDS011;24559;53.590;9.764;2023-07-22T03:36:35;12.07;;;7.32;;
25333;SDS011;24559;53.590;9.764;2023-07-22T03:39:01;12.07;;;8.10;;
25333;SDS011;24559;53.590;9.764;2023-07-22T03:41:28;14.82;;;7.32;;
25333;SDS011;24559;53.590;9.764;2023-07-22T03:43:54;14.60;;;8.00;;
25333;SDS011;24559;53.590;9.764;2023-07-22T03:46:20;15.82;;;8.40;;
25333;SDS011;24559;53.590;9.764;2023-07-22T03:48:46;12.32;;;8.20;;
25333;SDS011;24559;53.590;9.764;2023-07-22T03:51:13;15.90;;;7.45;;
25333;SDS011;24559;53.590;9.764;2023-07-22T03:53:39;12.15;;;7.50;;
25333;SDS011;24559;53.590;9.764;2023-07-22T03:56:05;12.15;;;7.10;;
25333;SDS011;24559;53.590;9.764;2023-07-22T03:58:31;12.50;;;7.15;;
25333;SDS011;24559;53.590;9.764;2023-07-22T04:00:57;14.15;;;7.35;;
25333;SDS011;24559;53.590;9.764;2023-07-22T04:03:23;11.38;;;7.20;;
25333;SDS011;24559;53.590;9.764;2023-07-22T04:05:53;12.43;;;6.72;;
25333;SDS011;24559;53.590;9.764;2023-07-22T04:08:20;13.02;;;6.85;;
25333;SDS011;24559;53.590;9.764;2023-07-22T04:10:53;13.70;;;7.53;;
25333;SDS011;24559;53.590;9.764;2023-07-22T04:13:29;12.25;;;7.20;;
25333;SDS011;24559;53.590;9.764;2023-07-22T04:15:55;12.05;;;6.53;;
25333;SDS011;24559;53.590;9.764;2023-07-22T04:18:22;14.27;;;6.75;;
25333;SDS011;24559;53.590;9.764;2023-07-22T04:20:51;11.63;;;7.22;;
25333;SDS011;24559;53.590;9.764;2023-07-22T04:23:20;14.35;;;7.10;;
25333;SDS011;24559;53.590;9.764;2023-07-22T04:25:47;9.73;;;7.10;;
25333;SDS011;24559;53.590;9.764;2023-07-22T04:28:13;11.10;;;7.30;;
25333;SDS011;24559;53.590;9.764;2023-07-22T04:30:40;9.75;;;6.50;;
25333;SDS011;24559;53.590;9.764;2023-07-22T04:33:07;12.50;;;7.18;;
25333;SDS011;24559;53.590;9.764;2023-07-22T04:35:40;8.70;;;6.45;;
25333;SDS011;24559;53.590;9.764;2023-07-22T04:38:06;9.10;;;7.28;;
25333;SDS011;24559;53.590;9.764;2023-07-22T04:40:33;8.27;;;6.50;;
25333;SDS011;24559;53.590;9.764;2023-07-22T04:42:59;13.05;;;7.15;;
25333;SDS011;24559;53.590;9.764;2023-07-22T04:45:25;10.05;;;6.30;;
25333;SDS011;24559;53.590;9.764;2023-07-22T04:47:52;12.30;;;7.05;;
25333;SDS011;24559;53.590;9.764;2023-07-22T04:50:18;11.77;;;6.50;;
25333;SDS011;24559;53.590;9.764;2023-07-22T04:52:46;8.82;;;5.93;;
25333;SDS011;24559;53.590;9.764;2023-07-22T04:55:13;9.20;;;6.25;;
25333;SDS011;24559;53.590;9.764;2023-07-22T04:57:39;13.85;;;7.13;;
25333;SDS011;24559;53.590;9.764;2023-07-22T05:00:06;11.43;;;6.30;;
25333;SDS011;24559;53.590;9.764;2023-07-22T05:02:39;11.85;;;6.57;;
25333;SDS011;24559;53.590;9.764;2023-07-22T05:05:05;10.75;;;6.68;;
25333;SDS011;24559;53.590;9.764;2023-07-22T05:07:31;12.80;;;6.60;;
25333;SDS011;24559;53.590;9.764;2023-07-22T05:09:58;14.80;;;7.90;;
25333;SDS011;24559;53.590;9.764;2023-07-22T05:12:24;11.32;;;7.07;;
25333;SDS011;24559;53.590;9.764;2023-07-22T05:14:50;10.65;;;6.07;;
25333;SDS011;24559;53.590;9.764;2023-07-22T05:17:16;8.23;;;5.70;;
25333;SDS011;24559;53.590;9.764;2023-07-22T05:19:42;10.57;;;5.85;;
25333;SDS011;24559;53.590;9.764;2023-07-22T05:22:09;10.23;;;6.10;;
25333;SDS011;24559;53.590;9.764;2023-07-22T05:24:35;10.82;;;5.65;;
25333;SDS011;24559;53.590;9.764;2023-07-22T05:27:01;8.18;;;5.43;;
25333;SDS011;24559;53.590;9.764;2023-07-22T05:29:28;9.35;;;5.63;;
25333;SDS011;24559;53.590;9.764;2023-07-22T05:31:54;10.95;;;5.57;;
25333;SDS011;24559;53.590;9.764;2023-07-22T05:34:20;12.40;;;5.57;;
25333;SDS011;24559;53.590;9.764;2023-07-22T05:36:46;11.02;;;6.15;;
25333;SDS011;24559;53.590;9.764;2023-07-22T05:39:12;9.77;;;5.63;;
25333;SDS011;24559;53.590;9.764;2023-07-22T05:41:42;7.80;;;5.72;;
25333;SDS011;24559;53.590;9.764;2023-07-22T05:44:09;11.75;;;5.82;;
25333;SDS011;24559;53.590;9.764;2023-07-22T05:46:35;6.75;;;4.93;;
25333;SDS011;24559;53.590;9.764;2023-07-22T05:49:02;8.90;;;5.38;;
25333;SDS011;24559;53.590;9.764;2023-07-22T05:51:28;9.98;;;5.57;;
25333;SDS011;24559;53.590;9.764;2023-07-22T05:53:55;11.52;;;5.72;;
25333;SDS011;24559;53.590;9.764;2023-07-22T05:56:22;6.70;;;4.97;;
25333;SDS011;24559;53.590;9.764;2023-07-22T05:58:48;8.93;;;5.30;;
25333;SDS011;24559;53.590;9.764;2023-07-22T06:01:15;9.95;;;6.10;;
25333;SDS011;24559;53.590;9.764;2023-07-22T06:03:41;6.82;;;5.68;;
25333;SDS011;24559;53.590;9.764;2023-07-22T06:06:09;11.85;;;5.75;;
25333;SDS011;24559;53.590;9.764;2023-07-22T06:08:35;8.68;;;4.95;;
25333;SDS011;24559;53.590;9.764;2023-07-22T06:11:01;9.80;;;5.18;;
25333;SDS011;24559;53.590;9.764;2023-07-22T06:13:28;5.63;;;4.28;;
25333;SDS011;24559;53.590;9.764;2023-07-22T06:15:54;6.70;;;4.75;;
25333;SDS011;24559;53.590;9.764;2023-07-22T06:18:20;7.13;;;4.38;;
25333;SDS011;24559;53.590;9.764;2023-07-22T06:20:46;4.70;;;4.18;;
25333;SDS011;24559;53.590;9.764;2023-07-22T06:23:12;7.45;;;4.43;;
25333;SDS011;24559;53.590;9.764;2023-07-22T06:25:38;8.10;;;4.38;;
25333;SDS011;24559;53.590;9.764;2023-07-22T06:28:06;6.18;;;5.10;;
25333;SDS011;24559;53.590;9.764;2023-07-22T06:30:32;5.93;;;4.78;;
25333;SDS011;24559;53.590;9.764;2023-07-22T06:32:58;5.65;;;4.00;;
25333;SDS011;24559;53.590;9.764;2023-07-22T06:35:25;6.65;;;4.40;;
25333;SDS011;24559;53.590;9.764;2023-07-22T06:37:51;6.68;;;3.90;;
25333;SDS011;24559;53.590;9.764;2023-07-22T06:40:17;7.10;;;3.60;;
25333;SDS011;24559;53.590;9.764;2023-07-22T06:42:44;3.88;;;3.15;;
25333;SDS011;24559;53.590;9.764;2023-07-22T06:45:10;5.88;;;3.58;;
25333;SDS011;24559;53.590;9.764;2023-07-22T06:47:36;5.28;;;3.25;;
25333;SDS011;24559;53.590;9.764;2023-07-22T06:50:03;5.53;;;3.67;;
25333;SDS011;24559;53.590;9.764;2023-07-22T06:52:30;5.22;;;3.30;;
25333;SDS011;24559;53.590;9.764;2023-07-22T06:54:56;4.90;;;3.10;;
25333;SDS011;24559;53.590;9.764;2023-07-22T06:57:22;5.30;;;2.70;;
25333;SDS011;24559;53.590;9.764;2023-07-22T06:59:52;4.78;;;2.85;;
25333;SDS011;24559;53.590;9.764;2023-07-22T07:02:19;5.50;;;3.08;;
25333;SDS011;24559;53.590;9.764;2023-07-22T07:04:46;4.93;;;2.97;;
25333;SDS011;24559;53.590;9.764;2023-07-22T07:07:12;5.72;;;2.78;;
25333;SDS011;24559;53.590;9.764;2023-07-22T07:09:39;4.38;;;2.25;;
25333;SDS011;24559;53.590;9.764;2023-07-22T07:12:05;2.63;;;2.17;;
25333;SDS011;24559;53.590;9.764;2023-07-22T07:14:32;3.08;;;2.20;;
25333;SDS011;24559;53.590;9.764;2023-07-22T07:16:59;3.15;;;1.90;;
25333;SDS011;24559;53.590;9.764;2023-07-22T07:19:25;1.98;;;1.70;;
25333;SDS011;24559;53.590;9.764;2023-07-22T07:21:52;5.25;;;2.22;;
25333;SDS011;24559;53.590;9.764;2023-07-22T07:24:18;3.95;;;2.05;;
25333;SDS011;24559;53.590;9.764;2023-07-22T07:26:45;3.03;;;1.80;;
25333;SDS011;24559;53.590;9.764;2023-07-22T07:29:11;2.65;;;1.60;;
25333;SDS011;24559;53.590;9.764;2023-07-22T07:31:38;4.05;;;1.90;;
25333;SDS011;24559;53.590;9.764;2023-07-22T07:34:04;3.38;;;1.98;;
25333;SDS011;24559;53.590;9.764;2023-07-22T07:36:31;1.85;;;1.50;;
25333;SDS011;24559;53.590;9.764;2023-07-22T07:38:57;4.90;;;1.90;;
25333;SDS011;24559;53.590;9.764;2023-07-22T07:41:25;2.17;;;1.52;;
25333;SDS011;24559;53.590;9.764;2023-07-22T07:43:51;2.65;;;1.60;;
25333;SDS011;24559;53.590;9.764;2023-07-22T07:46:20;2.35;;;1.60;;
25333;SDS011;24559;53.590;9.764;2023-07-22T07:48:47;3.42;;;1.48;;
25333;SDS011;24559;53.590;9.764;2023-07-22T07:51:14;2.45;;;1.70;;
25333;SDS011;24559;53.590;9.764;2023-07-22T07:53:41;2.30;;;1.58;;
25333;SDS011;24559;53.590;9.764;2023-07-22T07:56:09;1.42;;;1.35;;
25333;SDS011;24559;53.590;9.764;2023-07-22T07:58:35;4.15;;;1.63;;
25333;SDS011;24559;53.590;9.764;2023-07-22T08:01:02;3.88;;;1.52;;
25333;SDS011;24559;53.590;9.764;2023-07-22T08:03:29;2.72;;;1.20;;
25333;SDS011;24559;53.590;9.764;2023-07-22T08:05:55;2.08;;;1.33;;
25333;SDS011;24559;53.590;9.764;2023-07-22T08:08:21;2.47;;;1.30;;
25333;SDS011;24559;53.590;9.764;2023-07-22T08:10:57;1.90;;;1.73;;
25333;SDS011;24559;53.590;9.764;2023-07-22T08:13:23;1.67;;;1.20;;
25333;SDS011;24559;53.590;9.764;2023-07-22T08:15:50;1.55;;;1.15;;
25333;SDS011;24559;53.590;9.764;2023-07-22T08:18:16;1.70;;;1.40;;
25333;SDS011;24559;53.590;9.764;2023-07-22T08:20:42;3.58;;;1.50;;
25333;SDS011;24559;53.590;9.764;2023-07-22T08:23:08;2.20;;;1.65;;
25333;SDS011;24559;53.590;9.764;2023-07-22T08:25:35;1.83;;;1.30;;
25333;SDS011;24559;53.590;9.764;2023-07-22T08:28:01;2.42;;;1.40;;
25333;SDS011;24559;53.590;9.764;2023-07-22T08:30:27;2.10;;;1.45;;
25333;SDS011;24559;53.590;9.764;2023-07-22T08:32:53;2.63;;;1.20;;
25333;SDS011;24559;53.590;9.764;2023-07-22T08:35:20;1.92;;;1.20;;
25333;SDS011;24559;53.590;9.764;2023-07-22T08:37:47;3.58;;;1.20;;
25333;SDS011;24559;53.590;9.764;2023-07-22T08:40:13;1.80;;;1.05;;
25333;SDS011;24559;53.590;9.764;2023-07-22T08:42:40;2.67;;;1.02;;
25333;SDS011;24559;53.590;9.764;2023-07-22T08:45:09;1.38;;;1.10;;
25333;SDS011;24559;53.590;9.764;2023-07-22T08:47:38;1.33;;;1.00;;
25333;SDS011;24559;53.590;9.764;2023-07-22T08:50:05;1.15;;;1.05;;
25333;SDS011;24559;53.590;9.764;2023-07-22T08:52:33;1.27;;;1.10;;
25333;SDS011;24559;53.590;9.764;2023-07-22T08:54:59;1.63;;;1.08;;
25333;SDS011;24559;53.590;9.764;2023-07-22T08:57:27;1.00;;;1.00;;
25333;SDS011;24559;53.590;9.764;2023-07-22T08:59:53;1.23;;;1.00;;
25333;SDS011;24559;53.590;9.764;2023-07-22T09:02:20;1.85;;;1.00;;
25333;SDS011;24559;53.590;9.764;2023-07-22T09:04:46;1.60;;;1.00;;
25333;SDS011;24559;53.590;9.764;2023-07-22T09:07:13;1.50;;;0.88;;
25333;SDS011;24559;53.590;9.764;2023-07-22T09:09:40;1.45;;;1.02;;
25333;SDS011;24559;53.590;9.764;2023-07-22T09:12:06;1.85;;;1.08;;
25333;SDS011;24559;53.590;9.764;2023-07-22T09:14:32;1.33;;;1.20;;
25333;SDS011;24559;53.590;9.764;2023-07-22T09:17:00;0.85;;;0.85;;
25333;SDS011;24559;53.590;9.764;2023-07-22T09:19:26;1.17;;;0.88;;
25333;SDS011;24559;53.590;9.764;2023-07-22T09:21:52;1.10;;;1.10;;
25333;SDS011;24559;53.590;9.764;2023-07-22T09:24:20;2.22;;;1.00;;
25333;SDS011;24559;53.590;9.764;2023-07-22T09:26:47;1.15;;;1.10;;
25333;SDS011;24559;53.590;9.764;2023-07-22T09:29:13;1.95;;;1.10;;
25333;SDS011;24559;53.590;9.764;2023-07-22T09:31:49;1.00;;;0.70;;
25333;SDS011;24559;53.590;9.764;2023-07-22T09:34:16;2.03;;;1.30;;
25333;SDS011;24559;53.590;9.764;2023-07-22T09:36:52;0.80;;;0.80;;
25333;SDS011;24559;53.590;9.764;2023-07-22T09:39:19;1.77;;;1.00;;
25333;SDS011;24559;53.590;9.764;2023-07-22T09:41:45;0.93;;;0.90;;
25333;SDS011;24559;53.590;9.764;2023-07-22T09:44:11;2.58;;;1.10;;
25333;SDS011;24559;53.590;9.764;2023-07-22T09:46:38;1.23;;;0.80;;
25333;SDS011;24559;53.590;9.764;2023-07-22T09:49:04;2.25;;;1.17;;
25333;SDS011;24559;53.590;9.764;2023-07-22T09:51:34;3.50;;;1.30;;
25333;SDS011;24559;53.590;9.764;2023-07-22T09:54:02;2.53;;;1.02;;
25333;SDS011;24559;53.590;9.764;2023-07-22T09:56:28;2.00;;;1.20;;
25333;SDS011;24559;53.590;9.764;2023-07-22T09:58:55;1.20;;;0.90;;
25333;SDS011;24559;53.590;9.764;2023-07-22T10:01:22;3.22;;;1.60;;
25333;SDS011;24559;53.590;9.764;2023-07-22T10:03:55;2.03;;;1.20;;
25333;SDS011;24559;53.590;9.764;2023-07-22T10:06:26;1.17;;;1.10;;
25333;SDS011;24559;53.590;9.764;2023-07-22T10:08:55;3.63;;;1.50;;
25333;SDS011;24559;53.590;9.764;2023-07-22T10:11:22;2.20;;;1.27;;
25333;SDS011;24559;53.590;9.764;2023-07-22T10:13:48;2.00;;;1.05;;
25333;SDS011;24559;53.590;9.764;2023-07-22T10:16:15;1.50;;;1.40;;
25333;SDS011;24559;53.590;9.764;2023-07-22T10:18:42;4.03;;;1.55;;
25333;SDS011;24559;53.590;9.764;2023-07-22T10:21:10;1.73;;;1.00;;
25333;SDS011;24559;53.590;9.764;2023-07-22T10:23:36;1.58;;;1.20;;
25333;SDS011;24559;53.590;9.764;2023-07-22T10:26:02;1.42;;;1.17;;
25333;SDS011;24559;53.590;9.764;2023-07-22T10:28:29;2.80;;;1.33;;
25333;SDS011;24559;53.590;9.764;2023-07-22T10:30:55;1.95;;;1.70;;
25333;SDS011;24559;53.590;9.764;2023-07-22T10:33:22;3.38;;;1.60;;
25333;SDS011;24559;53.590;9.764;2023-07-22T10:36:02;1.40;;;1.30;;
25333;SDS011;24559;53.590;9.764;2023-07-22T10:38:28;2.25;;;1.50;;
25333;SDS011;24559;53.590;9.764;2023-07-22T10:40:55;2.40;;;1.20;;
25333;SDS011;24559;53.590;9.764;2023-07-22T10:43:31;2.92;;;1.25;;
25333;SDS011;24559;53.590;9.764;2023-07-22T10:46:06;1.95;;;1.50;;
25333;SDS011;24559;53.590;9.764;2023-07-22T10:48:37;2.00;;;1.05;;
25333;SDS011;24559;53.590;9.764;2023-07-22T10:51:07;3.35;;;1.50;;
25333;SDS011;24559;53.590;9.764;2023-07-22T10:53:38;1.90;;;1.47;;
25333;SDS011;24559;53.590;9.764;2023-07-22T10:56:07;1.80;;;1.70;;
25333;SDS011;24559;53.590;9.764;2023-07-22T10:58:54;2.03;;;1.80;;
25333;SDS011;24559;53.590;9.764;2023-07-22T11:06:36;3.40;;;2.20;;
25333;SDS011;24559;53.590;9.764;2023-07-22T11:09:03;2.85;;;2.05;;
25333;SDS011;24559;53.590;9.764;2023-07-22T11:14:22;2.20;;;2.10;;
25333;SDS011;24559;53.590;9.764;2023-07-22T11:16:48;3.13;;;2.67;;
25333;SDS011;24559;53.590;9.764;2023-07-22T11:19:15;3.33;;;3.00;;
25333;SDS011;24559;53.590;9.764;2023-07-22T11:21:42;3.03;;;2.80;;
25333;SDS011;24559;53.590;9.764;2023-07-22T11:24:08;3.47;;;3.28;;
25333;SDS011;24559;53.590;9.764;2023-07-22T11:26:35;3.70;;;3.17;;
25333;SDS011;24559;53.590;9.764;2023-07-22T11:29:02;3.10;;;2.90;;
25333;SDS011;24559;53.590;9.764;2023-07-22T11:31:32;2.92;;;2.65;;
25333;SDS011;24559;53.590;9.764;2023-07-22T11:33:58;3.55;;;2.63;;
25333;SDS011;24559;53.590;9.764;2023-07-22T11:36:25;2.80;;;2.45;;
25333;SDS011;24559;53.590;9.764;2023-07-22T11:38:52;3.75;;;2.63;;
25333;SDS011;24559;53.590;9.764;2023-07-22T11:41:20;5.95;;;2.88;;
25333;SDS011;24559;53.590;9.764;2023-07-22T11:43:46;3.55;;;2.88;;
25333;SDS011;24559;53.590;9.764;2023-07-22T11:46:13;3.15;;;2.95;;
25333;SDS011;24559;53.590;9.764;2023-07-22T11:48:48;4.88;;;3.45;;
25333;SDS011;24559;53.590;9.764;2023-07-22T11:51:15;5.22;;;3.33;;
25333;SDS011;24559;53.590;9.764;2023-07-22T11:53:42;3.50;;;3.17;;
25333;SDS011;24559;53.590;9.764;2023-07-22T11:56:09;3.40;;;3.20;;
25333;SDS011;24559;53.590;9.764;2023-07-22T11:58:36;3.20;;;2.92;;
25333;SDS011;24559;53.590;9.764;2023-07-22T12:01:05;4.07;;;3.60;;
25333;SDS011;24559;53.590;9.764;2023-07-22T12:03:34;4.05;;;3.65;;
25333;SDS011;24559;53.590;9.764;2023-07-22T12:06:04;4.43;;;4.13;;
25333;SDS011;24559;53.590;9.764;2023-07-22T12:08:32;4.03;;;3.70;;
25333;SDS011;24559;53.590;9.764;2023-07-22T12:10:59;4.50;;;4.10;;
25333;SDS011;24559;53.590;9.764;2023-07-22T12:13:25;3.88;;;3.60;;
25333;SDS011;24559;53.590;9.764;2023-07-22T12:16:05;3.90;;;3.60;;
25333;SDS011;24559;53.590;9.764;2023-07-22T12:18:41;4.90;;;4.55;;
25333;SDS011;24559;53.590;9.764;2023-07-22T12:21:08;4.60;;;4.20;;
25333;SDS011;24559;53.590;9.764;2023-07-22T12:23:35;4.82;;;4.25;;
25333;SDS011;24559;53.590;9.764;2023-07-22T12:26:02;4.18;;;3.88;;
25333;SDS011;24559;53.590;9.764;2023-07-22T12:28:28;5.22;;;4.28;;
25333;SDS011;24559;53.590;9.764;2023-07-22T12:30:54;3.95;;;3.70;;
25333;SDS011;24559;53.590;9.764;2023-07-22T12:33:22;4.90;;;4.32;;
25333;SDS011;24559;53.590;9.764;2023-07-22T12:35:55;4.35;;;3.95;;
25333;SDS011;24559;53.590;9.764;2023-07-22T12:38:22;5.28;;;4.75;;
25333;SDS011;24559;53.590;9.764;2023-07-22T12:40:49;5.25;;;4.72;;
25333;SDS011;24559;53.590;9.764;2023-07-22T12:43:15;6.53;;;4.50;;
25333;SDS011;24559;53.590;9.764;2023-07-22T12:45:41;6.90;;;4.88;;
25333;SDS011;24559;53.590;9.764;2023-07-22T12:48:08;4.95;;;4.53;;
25333;SDS011;24559;53.590;9.764;2023-07-22T12:50:35;4.82;;;4.43;;
25333;SDS011;24559;53.590;9.764;2023-07-22T12:53:01;5.72;;;5.15;;
25333;SDS011;24559;53.590;9.764;2023-07-22T12:55:28;5.80;;;4.45;;
25333;SDS011;24559;53.590;9.764;2023-07-22T12:57:55;7.07;;;5.80;;
25333;SDS011;24559;53.590;9.764;2023-07-22T13:00:21;6.90;;;5.82;;
25333;SDS011;24559;53.590;9.764;2023-07-22T13:02:47;7.65;;;5.68;;
25333;SDS011;24559;53.590;9.764;2023-07-22T13:05:14;6.35;;;5.75;;
25333;SDS011;24559;53.590;9.764;2023-07-22T13:07:40;6.40;;;5.63;;
25333;SDS011;24559;53.590;9.764;2023-07-22T13:10:07;6.65;;;6.03;;
25333;SDS011;24559;53.590;9.764;2023-07-22T13:12:36;7.63;;;5.80;;
25333;SDS011;24559;53.590;9.764;2023-07-22T13:15:02;6.88;;;5.40;;
25333;SDS011;24559;53.590;9.764;2023-07-22T13:17:29;6.30;;;5.53;;
25333;SDS011;24559;53.590;9.764;2023-07-22T13:19:55;7.38;;;6.22;;
25333;SDS011;24559;53.590;9.764;2023-07-22T13:22:21;8.75;;;5.70;;
25333;SDS011;24559;53.590;9.764;2023-07-22T13:24:47;7.68;;;5.68;;
25333;SDS011;24559;53.590;9.764;2023-07-22T13:27:13;6.93;;;5.72;;
25333;SDS011;24559;53.590;9.764;2023-07-22T13:29:40;7.88;;;6.00;;
25333;SDS011;24559;53.590;9.764;2023-07-22T13:32:06;6.32;;;5.72;;
25333;SDS011;24559;53.590;9.764;2023-07-22T13:34:32;9.15;;;6.15;;
25333;SDS011;24559;53.590;9.764;2023-07-22T13:36:58;7.10;;;6.40;;
25333;SDS011;24559;53.590;9.764;2023-07-22T13:39:27;7.20;;;6.43;;
25333;SDS011;24559;53.590;9.764;2023-07-22T13:41:54;6.63;;;6.03;;
25333;SDS011;24559;53.590;9.764;2023-07-22T13:44:20;6.63;;;6.03;;
25333;SDS011;24559;53.590;9.764;2023-07-22T13:46:46;9.68;;;6.22;;
25333;SDS011;24559;53.590;9.764;2023-07-22T13:49:13;6.78;;;6.18;;
25333;SDS011;24559;53.590;9.764;2023-07-22T13:51:40;8.70;;;6.78;;
25333;SDS011;24559;53.590;9.764;2023-07-22T13:54:06;7.45;;;6.18;;
25333;SDS011;24559;53.590;9.764;2023-07-22T13:56:33;6.60;;;5.78;;
25333;SDS011;24559;53.590;9.764;2023-07-22T13:58:59;7.82;;;6.32;;
25333;SDS011;24559;53.590;9.764;2023-07-22T14:01:26;5.68;;;5.20;;
25333;SDS011;24559;53.590;9.764;2023-07-22T14:03:53;5.60;;;5.10;;
25333;SDS011;24559;53.590;9.764;2023-07-22T14:06:19;6.22;;;5.38;;
25333;SDS011;24559;53.590;9.764;2023-07-22T14:08:46;6.80;;;4.65;;
25333;SDS011;24559;53.590;9.764;2023-07-22T14:11:12;6.05;;;5.40;;
25333;SDS011;24559;53.590;9.764;2023-07-22T14:13:41;5.80;;;5.20;;
25333;SDS011;24559;53.590;9.764;2023-07-22T14:16:07;5.25;;;4.68;;
25333;SDS011;24559;53.590;9.764;2023-07-22T14:18:34;7.43;;;5.18;;
25333;SDS011;24559;53.590;9.764;2023-07-22T14:21:00;4.85;;;4.30;;
25333;SDS011;24559;53.590;9.764;2023-07-22T14:23:26;4.57;;;4.20;;
25333;SDS011;24559;53.590;9.764;2023-07-22T14:25:52;4.47;;;4.18;;
25333;SDS011;24559;53.590;9.764;2023-07-22T14:28:18;3.70;;;3.35;;
25333;SDS011;24559;53.590;9.764;2023-07-22T14:30:45;3.65;;;3.35;;
25333;SDS011;24559;53.590;9.764;2023-07-22T14:33:11;3.83;;;3.30;;
25333;SDS011;24559;53.590;9.764;2023-07-22T14:35:37;4.70;;;3.38;;
25333;SDS011;24559;53.590;9.764;2023-07-22T14:38:03;3.22;;;3.00;;
25333;SDS011;24559;53.590;9.764;2023-07-22T14:40:29;4.30;;;3.13;;
25333;SDS011;24559;53.590;9.764;2023-07-22T14:42:55;4.90;;;3.35;;
25333;SDS011;24559;53.590;9.764;2023-07-22T14:45:22;4.20;;;3.90;;
25333;SDS011;24559;53.590;9.764;2023-07-22T14:47:48;4.07;;;3.67;;
25333;SDS011;24559;53.590;9.764;2023-07-22T14:50:14;4.43;;;4.00;;
25333;SDS011;24559;53.590;9.764;2023-07-22T14:52:40;4.50;;;4.10;;